createdAt,value
2018-11-10T00:01:32.599Z,11.70
2018-11-10T00:04:06.929Z,11.70
2018-11-10T00:06:41.302Z,11.70
2018-11-10T00:09:15.598Z,11.70
2018-11-10T00:11:49.849Z,11.70
2018-11-10T00:14:24.002Z,11.70
2018-11-10T00:16:58.326Z,11.60
2018-11-10T00:19:32.726Z,11.70
2018-11-10T00:22:06.966Z,11.70
2018-11-10T00:24:41.322Z,11.60
2018-11-10T00:27:15.570Z,11.60
2018-11-10T00:29:49.857Z,11.60
2018-11-10T00:32:24.072Z,11.50
2018-11-10T00:34:58.388Z,11.50
2018-11-10T00:37:32.727Z,11.40
2018-11-10T00:40:08.347Z,11.50
2018-11-10T00:42:43.050Z,11.50
2018-11-10T00:45:17.209Z,11.50
2018-11-10T00:47:51.554Z,11.40
2018-11-10T00:50:25.870Z,11.40
2018-11-10T00:53:00.126Z,11.40
2018-11-10T00:55:34.378Z,11.40
2018-11-10T00:58:08.541Z,11.50
2018-11-10T01:00:42.846Z,11.50
2018-11-10T01:03:17.107Z,11.50
2018-11-10T01:05:51.354Z,11.50
2018-11-10T01:08:25.790Z,11.50
2018-11-10T01:11:00.008Z,11.50
2018-11-10T01:13:34.294Z,11.50
2018-11-10T01:16:08.564Z,11.50
2018-11-10T01:18:42.833Z,11.50
2018-11-10T01:21:17.221Z,11.40
2018-11-10T01:23:51.650Z,11.50
2018-11-10T01:26:25.926Z,11.40
2018-11-10T01:29:00.274Z,11.40
2018-11-10T01:31:34.548Z,11.50
2018-11-10T01:34:08.846Z,11.50
2018-11-10T01:36:43.286Z,11.50
2018-11-10T01:39:17.587Z,11.50
2018-11-10T01:41:51.915Z,11.60
2018-11-10T01:44:26.178Z,11.50
2018-11-10T01:47:00.366Z,11.50
2018-11-10T01:49:34.614Z,11.50
2018-11-10T01:52:08.914Z,11.50
2018-11-10T01:54:43.146Z,11.50
2018-11-10T01:57:17.510Z,11.50
2018-11-10T01:59:51.701Z,11.50
2018-11-10T02:02:25.957Z,11.50
2018-11-10T02:05:00.112Z,11.50
2018-11-10T02:07:34.416Z,11.50
2018-11-10T02:10:09.759Z,11.50
2018-11-10T02:12:44.031Z,11.50
2018-11-10T02:15:18.380Z,11.50
2018-11-10T02:17:52.640Z,11.50
2018-11-10T02:20:26.884Z,11.50
2018-11-10T02:23:01.186Z,11.50
2018-11-10T02:25:35.462Z,11.50
2018-11-10T02:28:09.849Z,11.50
2018-11-10T02:30:44.204Z,11.50
2018-11-10T02:33:18.370Z,11.50
2018-11-10T02:35:52.598Z,11.40
2018-11-10T02:38:27.252Z,11.40
2018-11-10T02:41:01.348Z,11.40
2018-11-10T02:43:35.527Z,11.40
2018-11-10T02:46:09.723Z,11.40
2018-11-10T02:48:43.945Z,11.40
2018-11-10T02:51:18.096Z,11.40
2018-11-10T02:53:52.347Z,11.40
2018-11-10T02:56:26.698Z,11.40
2018-11-10T02:59:01.135Z,11.40
2018-11-10T03:01:35.454Z,11.40
2018-11-10T03:04:09.749Z,11.40
2018-11-10T03:06:44.006Z,11.30
2018-11-10T03:09:18.317Z,11.30
2018-11-10T03:11:52.606Z,11.30
2018-11-10T03:14:26.733Z,11.30
2018-11-10T03:17:01.042Z,11.30
2018-11-10T03:19:35.337Z,11.40
2018-11-10T03:22:09.633Z,11.30
2018-11-10T03:24:43.961Z,11.30
2018-11-10T03:27:18.398Z,11.30
2018-11-10T03:29:52.729Z,11.40
2018-11-10T03:32:27.010Z,11.40
2018-11-10T03:35:01.429Z,11.40
2018-11-10T03:37:35.578Z,11.40
2018-11-10T03:40:11.190Z,11.40
2018-11-10T03:42:45.389Z,11.40
2018-11-10T03:45:19.783Z,11.40
2018-11-10T03:47:54.022Z,11.40
2018-11-10T03:50:28.374Z,11.40
2018-11-10T03:53:02.662Z,11.50
2018-11-10T03:55:36.999Z,11.50
2018-11-10T03:58:11.243Z,11.50
2018-11-10T04:00:45.594Z,11.50
2018-11-10T04:03:19.850Z,11.60
2018-11-10T04:05:54.246Z,11.60
2018-11-10T04:08:28.684Z,11.60
2018-11-10T04:11:02.962Z,11.60
2018-11-10T04:13:37.210Z,11.60
2018-11-10T04:16:11.542Z,11.60
2018-11-10T04:18:45.965Z,11.60
2018-11-10T04:21:20.225Z,11.70
2018-11-10T04:23:54.605Z,11.60
2018-11-10T04:26:28.973Z,11.70
2018-11-10T04:29:03.114Z,11.70
2018-11-10T04:31:37.365Z,11.70
2018-11-10T04:34:11.650Z,11.70
2018-11-10T04:36:45.974Z,11.70
2018-11-10T04:39:20.255Z,11.70
2018-11-10T04:41:54.564Z,11.70
2018-11-10T04:44:28.864Z,11.70
2018-11-10T04:47:03.048Z,11.70
2018-11-10T04:49:37.458Z,11.70
2018-11-10T04:52:11.734Z,11.70
2018-11-10T04:54:45.894Z,11.70
2018-11-10T04:57:20.158Z,11.70
2018-11-10T04:59:54.484Z,11.70
2018-11-10T05:02:28.791Z,11.70
2018-11-10T05:05:03.184Z,11.70
2018-11-10T05:07:37.882Z,11.80
2018-11-10T05:10:12.074Z,11.80
2018-11-10T05:12:46.371Z,11.80
2018-11-10T05:15:20.626Z,11.80
2018-11-10T05:17:54.862Z,11.80
2018-11-10T05:20:29.054Z,11.80
2018-11-10T05:23:03.454Z,11.80
2018-11-10T05:25:37.700Z,11.80
2018-11-10T05:28:11.886Z,11.80
2018-11-10T05:30:46.245Z,11.80
2018-11-10T05:33:20.581Z,11.80
2018-11-10T05:35:54.877Z,11.80
2018-11-10T05:38:28.993Z,11.80
2018-11-10T05:41:03.307Z,11.80
2018-11-10T05:43:37.582Z,11.90
2018-11-10T05:46:11.859Z,11.90
2018-11-10T05:48:46.211Z,11.90
2018-11-10T05:51:20.682Z,11.90
2018-11-10T05:53:54.869Z,11.90
2018-11-10T05:56:29.131Z,12.00
2018-11-10T05:59:03.642Z,11.90
2018-11-10T06:01:37.853Z,11.90
2018-11-10T06:04:12.101Z,12.00
2018-11-10T06:06:46.386Z,11.90
2018-11-10T06:09:20.906Z,11.90
2018-11-10T06:11:55.154Z,12.00
2018-11-10T06:14:29.430Z,12.00
2018-11-10T06:17:03.816Z,11.90
2018-11-10T06:19:38.031Z,11.90
2018-11-10T06:22:12.212Z,11.90
2018-11-10T06:24:46.402Z,11.90
2018-11-10T06:27:20.566Z,11.90
2018-11-10T06:29:54.730Z,12.00
2018-11-10T06:32:29.053Z,11.90
2018-11-10T06:35:03.204Z,11.90
2018-11-10T06:37:37.513Z,11.90
2018-11-10T06:40:12.917Z,11.90
2018-11-10T06:42:47.141Z,11.90
2018-11-10T06:45:21.573Z,11.80
2018-11-10T06:47:55.897Z,11.80
2018-11-10T06:50:30.390Z,11.90
2018-11-10T06:53:05.004Z,11.90
2018-11-10T06:55:39.143Z,11.90
2018-11-10T06:58:13.295Z,11.90
2018-11-10T07:00:47.558Z,11.90
2018-11-10T07:03:21.977Z,11.90
2018-11-10T07:05:56.082Z,11.90
2018-11-10T07:08:30.481Z,11.90
2018-11-10T07:11:04.694Z,11.90
2018-11-10T07:13:38.946Z,11.90
2018-11-10T07:16:13.370Z,12.00
2018-11-10T07:18:47.670Z,12.00
2018-11-10T07:21:22.070Z,12.00
2018-11-10T07:23:56.354Z,12.00
2018-11-10T07:26:30.510Z,12.10
2018-11-10T07:29:05.040Z,12.10
2018-11-10T07:31:39.255Z,12.20
2018-11-10T07:34:13.551Z,12.20
2018-11-10T07:36:47.865Z,12.20
2018-11-10T07:39:22.145Z,12.20
2018-11-10T07:41:56.310Z,12.20
2018-11-10T07:44:30.562Z,12.20
2018-11-10T07:47:05.342Z,12.30
2018-11-10T07:49:39.651Z,12.20
2018-11-10T07:52:14.002Z,12.30
2018-11-10T07:54:48.233Z,12.30
2018-11-10T07:57:22.490Z,12.30
2018-11-10T07:59:56.798Z,12.30
2018-11-10T08:02:30.993Z,12.30
2018-11-10T08:05:05.423Z,12.30
2018-11-10T08:07:40.566Z,12.30
2018-11-10T08:10:15.378Z,12.30
2018-11-10T08:12:49.747Z,12.30
2018-11-10T08:15:23.905Z,12.30
2018-11-10T08:17:58.099Z,12.30
2018-11-10T08:20:32.219Z,12.30
2018-11-10T08:23:06.507Z,12.30
2018-11-10T08:25:40.755Z,12.30
2018-11-10T08:28:15.085Z,12.40
2018-11-10T08:30:49.393Z,12.40
2018-11-10T08:33:23.722Z,12.40
2018-11-10T08:35:57.971Z,12.40
2018-11-10T08:38:33.169Z,12.50
2018-11-10T08:41:07.290Z,12.50
2018-11-10T08:43:41.595Z,12.50
2018-11-10T08:46:16.055Z,12.50
2018-11-10T08:48:50.221Z,12.50
2018-11-10T08:51:24.489Z,12.60
2018-11-10T08:53:58.779Z,12.60
2018-11-10T08:56:33.054Z,12.60
2018-11-10T08:59:07.460Z,12.70
2018-11-10T09:01:41.643Z,12.70
2018-11-10T09:04:15.923Z,12.70
2018-11-10T09:06:50.122Z,12.70
2018-11-10T09:09:24.427Z,12.80
2018-11-10T09:11:58.726Z,12.80
2018-11-10T09:14:33.094Z,12.80
2018-11-10T09:17:07.382Z,12.80
2018-11-10T09:19:41.662Z,12.80
2018-11-10T09:22:15.942Z,12.80
2018-11-10T09:24:50.340Z,12.90
2018-11-10T09:27:24.486Z,12.90
2018-11-10T09:29:58.777Z,12.90
2018-11-10T09:32:33.234Z,13.00
2018-11-10T09:35:08.507Z,13.00
2018-11-10T09:37:42.793Z,13.00
2018-11-10T09:40:17.554Z,13.00
2018-11-10T09:42:51.739Z,13.00
2018-11-10T09:45:25.965Z,13.10
2018-11-10T09:48:00.244Z,13.10
2018-11-10T09:50:34.627Z,13.20
2018-11-10T09:53:08.685Z,13.20
2018-11-10T09:55:42.866Z,13.30
2018-11-10T09:58:17.065Z,13.30
2018-11-10T10:00:51.438Z,13.40
2018-11-10T10:03:25.675Z,13.40
2018-11-10T10:05:59.965Z,13.40
2018-11-10T10:08:34.274Z,13.40
2018-11-10T10:11:08.529Z,13.30
2018-11-10T10:13:42.798Z,13.40
2018-11-10T10:16:17.277Z,13.40
2018-11-10T10:18:51.498Z,13.40
2018-11-10T10:21:25.863Z,13.40
2018-11-10T10:24:00.185Z,13.40
2018-11-10T10:26:34.346Z,13.40
2018-11-10T10:29:08.751Z,13.40
2018-11-10T10:31:43.066Z,13.40
2018-11-10T10:34:17.502Z,13.40
2018-11-10T10:36:51.727Z,13.50
2018-11-10T10:39:25.942Z,13.50
2018-11-10T10:42:00.347Z,13.50
2018-11-10T10:44:34.639Z,13.50
2018-11-10T10:47:08.927Z,13.50
2018-11-10T10:49:43.229Z,13.50
2018-11-10T10:52:17.438Z,13.50
2018-11-10T10:54:51.889Z,13.60
2018-11-10T10:57:26.159Z,13.60
2018-11-10T11:00:00.466Z,13.60
2018-11-10T11:02:40.170Z,13.50
2018-11-10T11:05:16.289Z,13.50
2018-11-10T11:07:50.734Z,13.50
2018-11-10T11:10:25.334Z,13.50
2018-11-10T11:12:59.466Z,13.50
2018-11-10T11:15:33.842Z,13.50
2018-11-10T11:18:08.011Z,13.50
2018-11-10T11:20:42.256Z,13.50
2018-11-10T11:23:16.605Z,13.50
2018-11-10T11:25:50.938Z,13.50
2018-11-10T11:28:25.218Z,13.40
2018-11-10T11:30:59.534Z,13.50
2018-11-10T11:33:34.014Z,13.40
2018-11-10T11:36:08.249Z,13.40
2018-11-10T11:38:42.629Z,13.40
2018-11-10T11:41:17.222Z,13.40
2018-11-10T11:43:51.321Z,13.40
2018-11-10T11:46:25.790Z,13.40
2018-11-10T11:48:59.957Z,13.40
2018-11-10T11:51:34.370Z,13.40
2018-11-10T11:54:08.615Z,13.30
2018-11-10T11:56:42.783Z,13.30
2018-11-10T11:59:17.134Z,13.30
2018-11-10T12:01:51.630Z,13.30
2018-11-10T12:04:25.852Z,13.30
2018-11-10T12:06:59.997Z,13.30
2018-11-10T12:09:34.330Z,13.30
2018-11-10T12:12:08.658Z,13.30
2018-11-10T12:14:42.908Z,13.30
2018-11-10T12:17:17.041Z,13.30
2018-11-10T12:19:52.555Z,13.30
2018-11-10T12:22:27.013Z,13.30
2018-11-10T12:25:01.423Z,13.30
2018-11-10T12:27:38.522Z,13.30
2018-11-10T12:30:13.071Z,13.30
2018-11-10T12:32:48.321Z,13.30
2018-11-10T12:35:22.546Z,13.30
2018-11-10T12:37:56.893Z,13.20
2018-11-10T12:40:31.234Z,13.20
2018-11-10T12:43:05.777Z,13.20
2018-11-10T12:45:39.982Z,13.20
2018-11-10T12:48:14.270Z,13.20
2018-11-10T12:50:48.533Z,13.20
2018-11-10T12:53:22.877Z,13.20
2018-11-10T12:55:57.170Z,13.20
2018-11-10T12:58:31.459Z,13.10
2018-11-10T13:01:05.729Z,13.20
2018-11-10T13:03:40.218Z,13.20
2018-11-10T13:06:14.437Z,13.20
2018-11-10T13:08:48.710Z,13.20
2018-11-10T13:11:22.915Z,13.10
2018-11-10T13:13:57.102Z,13.20
2018-11-10T13:16:31.495Z,13.20
2018-11-10T13:19:06.661Z,13.20
2018-11-10T13:21:40.989Z,13.20
2018-11-10T13:24:15.373Z,13.20
2018-11-10T13:26:49.637Z,13.20
2018-11-10T13:29:24.026Z,13.20
2018-11-10T13:31:58.309Z,13.20
2018-11-10T13:34:32.579Z,13.20
2018-11-10T13:37:07.190Z,13.30
2018-11-10T13:39:41.592Z,13.30
2018-11-10T13:42:15.912Z,13.30
2018-11-10T13:44:50.214Z,13.30
2018-11-10T13:47:24.546Z,13.30
2018-11-10T13:49:59.070Z,13.40
2018-11-10T13:52:33.547Z,13.40
2018-11-10T13:55:07.621Z,13.40
2018-11-10T13:57:41.897Z,13.40
2018-11-10T14:00:17.571Z,13.40
2018-11-10T14:02:51.850Z,13.40
2018-11-10T14:05:26.218Z,13.40
2018-11-10T14:08:00.446Z,13.40
2018-11-10T14:10:34.900Z,13.50
2018-11-10T14:13:09.300Z,13.40
2018-11-10T14:15:43.599Z,13.40
2018-11-10T14:18:17.731Z,13.40
2018-11-10T14:20:51.906Z,13.40
2018-11-10T14:23:26.240Z,13.40
2018-11-10T14:26:00.617Z,13.40
2018-11-10T14:28:34.924Z,13.40
2018-11-10T14:31:09.090Z,13.40
2018-11-10T14:33:43.418Z,13.40
2018-11-10T14:36:17.618Z,13.40
2018-11-10T14:38:51.788Z,13.40
2018-11-10T14:41:26.061Z,13.40
2018-11-10T14:44:00.247Z,13.40
2018-11-10T14:46:35.078Z,13.40
2018-11-10T14:49:09.397Z,13.40
2018-11-10T14:51:43.725Z,13.40
2018-11-10T14:54:18.054Z,13.40
2018-11-10T14:56:52.267Z,13.30
2018-11-10T14:59:26.586Z,13.30
2018-11-10T15:02:00.891Z,13.30
2018-11-10T15:04:35.433Z,13.30
2018-11-10T15:07:09.655Z,13.30
2018-11-10T15:09:44.009Z,13.30
2018-11-10T15:12:18.200Z,13.30
2018-11-10T15:14:52.350Z,13.30
2018-11-10T15:17:26.660Z,13.30
2018-11-10T15:20:00.923Z,13.30
2018-11-10T15:22:35.645Z,13.30
2018-11-10T15:25:11.554Z,13.30
2018-11-10T15:27:45.649Z,13.30
2018-11-10T15:30:20.971Z,13.30
2018-11-10T15:32:55.135Z,13.30
2018-11-10T15:35:29.430Z,13.30
2018-11-10T15:38:03.950Z,13.30
2018-11-10T15:40:38.315Z,13.30
2018-11-10T15:43:12.557Z,13.40
2018-11-10T15:45:46.845Z,13.40
2018-11-10T15:48:21.137Z,13.40
2018-11-10T15:50:55.657Z,13.40
2018-11-10T15:53:29.915Z,13.40
2018-11-10T15:56:04.091Z,13.40
2018-11-10T15:58:38.542Z,13.40
2018-11-10T16:01:12.801Z,13.40
2018-11-10T16:03:47.041Z,13.50
2018-11-10T16:06:21.413Z,13.50
2018-11-10T16:08:55.657Z,13.50
2018-11-10T16:11:29.962Z,13.50
2018-11-10T16:14:04.423Z,13.50
2018-11-10T16:16:38.718Z,13.50
2018-11-10T16:19:37.463Z,13.50
2018-11-10T16:22:11.574Z,13.50
2018-11-10T16:24:46.006Z,13.50
2018-11-10T16:27:20.282Z,13.50
2018-11-10T16:29:55.506Z,13.50
2018-11-10T16:32:29.685Z,13.50
2018-11-10T16:35:03.967Z,13.50
2018-11-10T16:37:38.170Z,13.50
2018-11-10T16:40:14.790Z,13.50
2018-11-10T16:42:49.310Z,13.50
2018-11-10T16:45:46.078Z,13.50
2018-11-10T16:48:20.418Z,13.50
2018-11-10T16:50:54.761Z,13.60
2018-11-10T17:07:57.079Z,13.60
2018-11-10T17:10:31.538Z,13.60
2018-11-10T17:13:05.985Z,13.50
2018-11-10T17:15:40.203Z,13.50
2018-11-10T17:18:14.506Z,13.50
2018-11-10T17:20:48.795Z,13.50
2018-11-10T17:23:25.425Z,13.50
2018-11-10T17:25:59.931Z,13.50
2018-11-10T17:29:07.435Z,13.50
2018-11-10T17:31:41.609Z,13.60
2018-11-10T17:34:15.983Z,13.60
2018-11-10T17:36:50.332Z,13.50
2018-11-10T17:39:24.876Z,13.60
2018-11-10T17:41:58.903Z,13.60
2018-11-10T17:44:33.014Z,13.60
2018-11-10T17:47:07.396Z,13.60
2018-11-10T17:49:41.525Z,13.60
2018-11-10T17:52:16.017Z,13.60
2018-11-10T17:54:50.248Z,13.60
2018-11-10T17:57:24.357Z,13.70
2018-11-10T17:59:58.611Z,13.70
2018-11-10T18:02:33.035Z,13.60
2018-11-10T18:05:08.498Z,13.70
2018-11-10T18:07:42.830Z,13.70
2018-11-10T18:10:18.053Z,13.70
2018-11-10T18:12:52.236Z,13.70
2018-11-10T18:15:26.802Z,13.60
2018-11-10T18:18:01.067Z,13.70
2018-11-10T18:20:35.311Z,13.70
2018-11-10T18:28:06.193Z,13.70
2018-11-10T18:30:40.680Z,13.70
2018-11-10T18:33:16.093Z,13.70
2018-11-10T18:39:34.037Z,13.70
2018-11-10T18:42:16.025Z,13.70
2018-11-10T18:44:51.378Z,13.70
2018-11-10T18:47:25.838Z,13.70
2018-11-10T18:50:00.059Z,13.70
2018-11-10T18:52:34.418Z,13.70
2018-11-10T18:55:08.886Z,13.70
2018-11-10T18:57:43.496Z,13.70
2018-11-10T19:00:17.855Z,13.70
2018-11-10T19:02:52.255Z,13.70
2018-11-10T19:05:26.382Z,13.70
2018-11-10T19:08:00.626Z,13.80
2018-11-10T19:10:34.854Z,13.80
2018-11-10T19:13:09.043Z,13.70
2018-11-10T19:15:43.138Z,13.70
2018-11-10T19:18:17.510Z,13.70
2018-11-10T19:20:51.734Z,13.70
2018-11-10T19:23:25.867Z,13.70
2018-11-10T19:26:00.099Z,13.60
2018-11-10T19:28:34.275Z,13.60
2018-11-10T19:31:08.486Z,13.60
2018-11-10T19:33:42.890Z,13.60
2018-11-10T19:36:17.082Z,13.60
2018-11-10T19:38:51.257Z,13.70
2018-11-10T19:41:25.526Z,13.70
2018-11-10T19:44:00.118Z,13.60
2018-11-10T19:46:34.374Z,13.60
2018-11-10T19:49:09.038Z,13.60
2018-11-10T19:51:43.560Z,13.70
2018-11-10T19:54:17.598Z,13.70
2018-11-10T19:56:52.030Z,13.70
2018-11-10T19:59:26.426Z,13.70
2018-11-10T20:02:00.698Z,13.70
2018-11-10T20:04:34.942Z,13.60
2018-11-10T20:07:09.083Z,13.60
2018-11-10T20:09:43.374Z,13.60
2018-11-10T20:12:17.645Z,13.60
2018-11-10T20:14:51.802Z,13.50
2018-11-10T20:17:26.338Z,13.50
2018-11-10T20:20:00.586Z,13.50
2018-11-10T20:22:35.018Z,13.50
2018-11-10T20:25:11.117Z,13.50
2018-11-10T20:27:45.365Z,13.50
2018-11-10T20:30:20.470Z,13.50
2018-11-10T20:32:54.816Z,13.50
2018-11-10T20:35:29.560Z,13.50
2018-11-10T20:38:03.849Z,13.50
2018-11-10T20:40:38.130Z,13.60
2018-11-10T20:43:12.322Z,13.50
2018-11-10T20:45:46.626Z,13.50
2018-11-10T20:48:20.902Z,13.50
2018-11-10T20:50:55.232Z,13.50
2018-11-10T20:53:29.726Z,13.50
2018-11-10T20:56:03.866Z,13.60
2018-11-10T20:58:38.042Z,13.60
2018-11-10T21:01:12.586Z,13.50
2018-11-10T21:03:46.945Z,13.60
2018-11-10T21:06:21.095Z,13.60
2018-11-10T21:08:55.278Z,13.60
2018-11-10T21:11:29.457Z,13.60
2018-11-10T21:14:03.709Z,13.60
2018-11-10T21:16:38.085Z,13.60
2018-11-10T21:19:12.200Z,13.60
2018-11-10T21:21:46.521Z,13.60
2018-11-10T21:24:20.854Z,13.60
2018-11-10T21:26:55.281Z,13.60
2018-11-10T21:29:29.723Z,13.60
2018-11-10T21:32:03.813Z,13.60
2018-11-10T21:34:37.966Z,13.60
2018-11-10T21:37:12.167Z,13.60
2018-11-10T21:39:46.434Z,13.50
2018-11-10T21:42:20.667Z,13.60
2018-11-10T21:44:54.953Z,13.60
2018-11-10T21:47:29.255Z,13.60
2018-11-10T21:50:03.878Z,13.60
2018-11-10T21:52:39.156Z,13.60
2018-11-10T21:55:14.588Z,13.60
2018-11-10T21:57:49.338Z,13.60
2018-11-10T22:00:23.626Z,13.60
2018-11-10T22:02:57.985Z,13.60
2018-11-10T22:05:32.394Z,13.60
2018-11-10T22:08:06.868Z,13.60
2018-11-10T22:10:41.262Z,13.60
2018-11-10T22:13:15.607Z,13.50
2018-11-10T22:15:50.010Z,13.50
2018-11-10T22:18:24.240Z,13.50
2018-11-10T22:20:58.638Z,13.50
2018-11-10T22:23:32.878Z,13.50
2018-11-10T22:26:07.330Z,13.50
2018-11-10T22:28:41.590Z,13.40
2018-11-10T22:31:15.858Z,13.40
2018-11-10T22:33:50.490Z,13.40
2018-11-10T22:36:24.606Z,13.40
2018-11-10T22:38:58.986Z,13.50
2018-11-10T22:41:33.242Z,13.40
2018-11-10T22:44:07.397Z,13.40
2018-11-10T22:46:41.521Z,13.40
2018-11-10T22:49:15.686Z,13.40
2018-11-10T22:51:49.990Z,13.40
2018-11-10T22:54:24.258Z,13.40
2018-11-10T22:56:58.698Z,13.40
2018-11-10T22:59:32.813Z,13.40
2018-11-10T23:02:07.213Z,13.50
2018-11-10T23:04:41.490Z,13.40
2018-11-10T23:07:15.822Z,13.40
2018-11-10T23:09:50.165Z,13.40
2018-11-10T23:12:24.483Z,13.40
2018-11-10T23:14:58.826Z,13.40
2018-11-10T23:17:33.054Z,13.40
2018-11-10T23:20:08.707Z,13.40
2018-11-10T23:22:43.062Z,13.40
2018-11-10T23:25:18.059Z,13.30
2018-11-10T23:27:52.214Z,13.40
2018-11-10T23:30:26.504Z,13.30
2018-11-10T23:33:00.659Z,13.40
2018-11-10T23:35:35.065Z,13.40
2018-11-10T23:38:09.295Z,13.40
2018-11-10T23:40:43.414Z,13.40
2018-11-10T23:43:17.769Z,13.40
2018-11-10T23:45:51.950Z,13.40
2018-11-10T23:48:26.337Z,13.40
2018-11-10T23:51:00.582Z,13.40
2018-11-10T23:53:34.861Z,13.40
2018-11-10T23:56:09.170Z,13.50
2018-11-10T23:58:43.525Z,13.40
